sensor_id;sensor_type;location;lat;lon;timestamp;P1;durP1;ratioP1;P2;durP2;ratioP2
70455;SDS011;57916;51.996;5.180;2023-12-22T00:00:22;8.00;;;1.30;;
70455;SDS011;57916;51.996;5.180;2023-12-22T00:02:49;11.90;;;1.40;;
70455;SDS011;57916;51.996;5.180;2023-12-22T00:05:16;8.15;;;0.98;;
70455;SDS011;57916;51.996;5.180;2023-12-22T00:07:43;13.65;;;1.40;;
70455;SDS011;57916;51.996;5.180;2023-12-22T00:10:10;8.45;;;1.10;;
70455;SDS011;57916;51.996;5.180;2023-12-22T00:12:37;11.60;;;1.33;;
70455;SDS011;57916;51.996;5.180;2023-12-22T00:15:05;13.80;;;1.70;;
70455;SDS011;57916;51.996;5.180;2023-12-22T00:17:32;11.38;;;1.80;;
70455;SDS011;57916;51.996;5.180;2023-12-22T00:19:59;10.93;;;1.50;;
70455;SDS011;57916;51.996;5.180;2023-12-22T00:22:29;10.57;;;1.63;;
70455;SDS011;57916;51.996;5.180;2023-12-22T00:24:57;10.07;;;1.50;;
70455;SDS011;57916;51.996;5.180;2023-12-22T00:27:24;12.30;;;1.63;;
70455;SDS011;57916;51.996;5.180;2023-12-22T00:29:50;14.82;;;1.88;;
70455;SDS011;57916;51.996;5.180;2023-12-22T00:32:17;16.48;;;2.15;;
70455;SDS011;57916;51.996;5.180;2023-12-22T00:34:44;13.10;;;1.70;;
70455;SDS011;57916;51.996;5.180;2023-12-22T00:37:11;16.80;;;2.13;;
70455;SDS011;57916;51.996;5.180;2023-12-22T00:39:39;12.88;;;1.73;;
70455;SDS011;57916;51.996;5.180;2023-12-22T00:42:05;11.68;;;1.80;;
70455;SDS011;57916;51.996;5.180;2023-12-22T00:44:33;14.80;;;2.10;;
70455;SDS011;57916;51.996;5.180;2023-12-22T00:46:59;16.83;;;1.70;;
70455;SDS011;57916;51.996;5.180;2023-12-22T00:49:26;18.17;;;2.20;;
70455;SDS011;57916;51.996;5.180;2023-12-22T00:51:53;19.08;;;2.03;;
70455;SDS011;57916;51.996;5.180;2023-12-22T00:54:20;15.85;;;1.88;;
70455;SDS011;57916;51.996;5.180;2023-12-22T00:56:47;5.03;;;1.20;;
70455;SDS011;57916;51.996;5.180;2023-12-22T00:59:14;6.20;;;1.10;;
70455;SDS011;57916;51.996;5.180;2023-12-22T01:01:41;3.10;;;0.68;;
70455;SDS011;57916;51.996;5.180;2023-12-22T01:04:11;7.00;;;1.00;;
70455;SDS011;57916;51.996;5.180;2023-12-22T01:06:38;6.78;;;0.95;;
70455;SDS011;57916;51.996;5.180;2023-12-22T01:09:06;5.68;;;0.88;;
70455;SDS011;57916;51.996;5.180;2023-12-22T01:11:33;7.40;;;0.98;;
70455;SDS011;57916;51.996;5.180;2023-12-22T01:14:00;6.25;;;0.98;;
70455;SDS011;57916;51.996;5.180;2023-12-22T01:16:27;3.83;;;1.00;;
70455;SDS011;57916;51.996;5.180;2023-12-22T01:18:54;9.20;;;1.30;;
70455;SDS011;57916;51.996;5.180;2023-12-22T01:21:21;6.18;;;0.90;;
70455;SDS011;57916;51.996;5.180;2023-12-22T01:23:48;8.50;;;1.50;;
70455;SDS011;57916;51.996;5.180;2023-12-22T01:26:15;9.50;;;1.40;;
70455;SDS011;57916;51.996;5.180;2023-12-22T01:28:42;10.52;;;1.50;;
70455;SDS011;57916;51.996;5.180;2023-12-22T01:31:09;13.52;;;1.60;;
70455;SDS011;57916;51.996;5.180;2023-12-22T01:33:36;14.27;;;1.63;;
70455;SDS011;57916;51.996;5.180;2023-12-22T01:36:03;13.07;;;2.08;;
70455;SDS011;57916;51.996;5.180;2023-12-22T01:38:30;16.10;;;1.95;;
70455;SDS011;57916;51.996;5.180;2023-12-22T01:40:57;14.45;;;2.03;;
70455;SDS011;57916;51.996;5.180;2023-12-22T01:43:24;9.25;;;1.63;;
70455;SDS011;57916;51.996;5.180;2023-12-22T01:45:52;12.18;;;1.77;;
70455;SDS011;57916;51.996;5.180;2023-12-22T01:48:23;15.63;;;2.10;;
70455;SDS011;57916;51.996;5.180;2023-12-22T01:50:51;12.98;;;2.10;;
70455;SDS011;57916;51.996;5.180;2023-12-22T01:53:20;18.27;;;1.90;;
70455;SDS011;57916;51.996;5.180;2023-12-22T01:55:48;20.33;;;1.90;;
70455;SDS011;57916;51.996;5.180;2023-12-22T01:58:17;17.58;;;1.80;;
70455;SDS011;57916;51.996;5.180;2023-12-22T02:00:45;12.02;;;2.08;;
70455;SDS011;57916;51.996;5.180;2023-12-22T02:03:13;15.30;;;1.90;;
70455;SDS011;57916;51.996;5.180;2023-12-22T02:05:42;22.13;;;2.10;;
70455;SDS011;57916;51.996;5.180;2023-12-22T02:08:10;24.58;;;2.60;;
70455;SDS011;57916;51.996;5.180;2023-12-22T02:10:38;22.67;;;2.80;;
70455;SDS011;57916;51.996;5.180;2023-12-22T02:13:05;15.30;;;2.60;;
70455;SDS011;57916;51.996;5.180;2023-12-22T02:15:32;17.77;;;2.42;;
70455;SDS011;57916;51.996;5.180;2023-12-22T02:18:04;25.90;;;2.95;;
70455;SDS011;57916;51.996;5.180;2023-12-22T02:20:43;21.83;;;2.87;;
70455;SDS011;57916;51.996;5.180;2023-12-22T02:23:10;28.33;;;2.83;;
70455;SDS011;57916;51.996;5.180;2023-12-22T02:25:37;26.90;;;3.53;;
70455;SDS011;57916;51.996;5.180;2023-12-22T02:28:09;24.45;;;2.72;;
70455;SDS011;57916;51.996;5.180;2023-12-22T02:33:12;22.27;;;2.97;;
70455;SDS011;57916;51.996;5.180;2023-12-22T02:35:42;17.35;;;2.85;;
70455;SDS011;57916;51.996;5.180;2023-12-22T02:38:12;25.63;;;3.80;;
70455;SDS011;57916;51.996;5.180;2023-12-22T02:40:39;24.60;;;3.03;;
70455;SDS011;57916;51.996;5.180;2023-12-22T02:43:07;16.27;;;2.33;;
70455;SDS011;57916;51.996;5.180;2023-12-22T02:45:35;21.65;;;3.15;;
70455;SDS011;57916;51.996;5.180;2023-12-22T02:48:02;19.15;;;2.83;;
70455;SDS011;57916;51.996;5.180;2023-12-22T02:50:29;14.38;;;2.20;;
70455;SDS011;57916;51.996;5.180;2023-12-22T02:52:56;12.43;;;2.00;;
70455;SDS011;57916;51.996;5.180;2023-12-22T02:55:23;18.55;;;2.45;;
70455;SDS011;57916;51.996;5.180;2023-12-22T02:57:50;15.33;;;2.20;;
70455;SDS011;57916;51.996;5.180;2023-12-22T03:00:17;14.95;;;2.60;;
70455;SDS011;57916;51.996;5.180;2023-12-22T03:02:44;13.95;;;2.20;;
70455;SDS011;57916;51.996;5.180;2023-12-22T03:05:11;19.70;;;2.60;;
70455;SDS011;57916;51.996;5.180;2023-12-22T03:07:39;21.15;;;2.72;;
70455;SDS011;57916;51.996;5.180;2023-12-22T03:10:06;17.52;;;3.05;;
70455;SDS011;57916;51.996;5.180;2023-12-22T03:12:33;22.00;;;3.00;;
70455;SDS011;57916;51.996;5.180;2023-12-22T03:15:00;20.30;;;2.78;;
70455;SDS011;57916;51.996;5.180;2023-12-22T03:17:27;12.23;;;2.30;;
70455;SDS011;57916;51.996;5.180;2023-12-22T03:19:54;18.97;;;2.83;;
70455;SDS011;57916;51.996;5.180;2023-12-22T03:22:21;15.77;;;2.10;;
70455;SDS011;57916;51.996;5.180;2023-12-22T03:24:48;18.02;;;2.45;;
70455;SDS011;57916;51.996;5.180;2023-12-22T03:27:14;19.08;;;2.47;;
70455;SDS011;57916;51.996;5.180;2023-12-22T03:29:44;18.70;;;2.47;;
70455;SDS011;57916;51.996;5.180;2023-12-22T03:32:11;11.38;;;2.28;;
70455;SDS011;57916;51.996;5.180;2023-12-22T03:34:38;13.77;;;2.22;;
70455;SDS011;57916;51.996;5.180;2023-12-22T03:37:05;20.90;;;2.38;;
70455;SDS011;57916;51.996;5.180;2023-12-22T03:39:32;18.30;;;2.58;;
70455;SDS011;57916;51.996;5.180;2023-12-22T03:41:59;16.80;;;2.25;;
70455;SDS011;57916;51.996;5.180;2023-12-22T03:44:26;17.37;;;2.17;;
70455;SDS011;57916;51.996;5.180;2023-12-22T03:46:53;18.48;;;2.88;;
70455;SDS011;57916;51.996;5.180;2023-12-22T03:49:20;14.98;;;2.42;;
70455;SDS011;57916;51.996;5.180;2023-12-22T03:51:47;22.70;;;3.03;;
70455;SDS011;57916;51.996;5.180;2023-12-22T03:54:14;23.38;;;3.15;;
70455;SDS011;57916;51.996;5.180;2023-12-22T03:56:43;20.73;;;2.60;;
70455;SDS011;57916;51.996;5.180;2023-12-22T03:59:10;17.08;;;3.00;;
70455;SDS011;57916;51.996;5.180;2023-12-22T04:01:37;18.38;;;2.35;;
70455;SDS011;57916;51.996;5.180;2023-12-22T04:04:04;21.05;;;2.55;;
70455;SDS011;57916;51.996;5.180;2023-12-22T04:06:31;23.13;;;2.63;;
70455;SDS011;57916;51.996;5.180;2023-12-22T04:08:58;19.92;;;2.70;;
70455;SDS011;57916;51.996;5.180;2023-12-22T04:11:25;19.75;;;2.70;;
70455;SDS011;57916;51.996;5.180;2023-12-22T04:13:52;18.33;;;2.80;;
70455;SDS011;57916;51.996;5.180;2023-12-22T04:16:19;21.67;;;2.92;;
70455;SDS011;57916;51.996;5.180;2023-12-22T04:18:46;18.58;;;2.90;;
70455;SDS011;57916;51.996;5.180;2023-12-22T04:21:13;23.10;;;3.13;;
70455;SDS011;57916;51.996;5.180;2023-12-22T04:23:40;15.15;;;2.42;;
70455;SDS011;57916;51.996;5.180;2023-12-22T04:26:07;23.27;;;2.90;;
70455;SDS011;57916;51.996;5.180;2023-12-22T04:28:34;20.52;;;2.70;;
70455;SDS011;57916;51.996;5.180;2023-12-22T04:31:01;16.67;;;2.40;;
70455;SDS011;57916;51.996;5.180;2023-12-22T04:33:28;16.85;;;2.38;;
70455;SDS011;57916;51.996;5.180;2023-12-22T04:35:55;19.15;;;2.72;;
70455;SDS011;57916;51.996;5.180;2023-12-22T04:38:22;18.05;;;2.97;;
70455;SDS011;57916;51.996;5.180;2023-12-22T04:40:48;24.00;;;3.58;;
70455;SDS011;57916;51.996;5.180;2023-12-22T04:43:15;19.88;;;2.30;;
70455;SDS011;57916;51.996;5.180;2023-12-22T04:45:42;19.67;;;2.50;;
70455;SDS011;57916;51.996;5.180;2023-12-22T04:48:10;16.58;;;2.35;;
70455;SDS011;57916;51.996;5.180;2023-12-22T04:50:37;15.32;;;2.42;;
70455;SDS011;57916;51.996;5.180;2023-12-22T04:53:03;13.75;;;2.33;;
70455;SDS011;57916;51.996;5.180;2023-12-22T04:55:31;18.17;;;2.72;;
70455;SDS011;57916;51.996;5.180;2023-12-22T04:57:57;17.70;;;2.63;;
70455;SDS011;57916;51.996;5.180;2023-12-22T05:00:24;18.07;;;2.43;;
70455;SDS011;57916;51.996;5.180;2023-12-22T05:02:51;18.05;;;2.47;;
70455;SDS011;57916;51.996;5.180;2023-12-22T05:05:18;20.77;;;2.58;;
70455;SDS011;57916;51.996;5.180;2023-12-22T05:07:45;20.87;;;2.40;;
70455;SDS011;57916;51.996;5.180;2023-12-22T05:10:13;15.63;;;2.00;;
70455;SDS011;57916;51.996;5.180;2023-12-22T05:12:40;19.17;;;2.30;;
70455;SDS011;57916;51.996;5.180;2023-12-22T05:15:12;12.38;;;2.03;;
70455;SDS011;57916;51.996;5.180;2023-12-22T05:17:39;16.63;;;2.50;;
70455;SDS011;57916;51.996;5.180;2023-12-22T05:20:07;13.52;;;2.25;;
70455;SDS011;57916;51.996;5.180;2023-12-22T05:22:36;17.63;;;2.45;;
70455;SDS011;57916;51.996;5.180;2023-12-22T05:25:03;14.23;;;2.25;;
70455;SDS011;57916;51.996;5.180;2023-12-22T05:27:31;14.15;;;2.38;;
70455;SDS011;57916;51.996;5.180;2023-12-22T05:29:57;17.92;;;2.00;;
70455;SDS011;57916;51.996;5.180;2023-12-22T05:32:29;21.55;;;2.50;;
70455;SDS011;57916;51.996;5.180;2023-12-22T05:34:56;15.68;;;2.30;;
70455;SDS011;57916;51.996;5.180;2023-12-22T05:37:23;15.63;;;2.40;;
70455;SDS011;57916;51.996;5.180;2023-12-22T05:39:50;20.63;;;3.17;;
70455;SDS011;57916;51.996;5.180;2023-12-22T05:42:17;12.23;;;2.00;;
70455;SDS011;57916;51.996;5.180;2023-12-22T05:44:44;16.15;;;2.05;;
70455;SDS011;57916;51.996;5.180;2023-12-22T05:47:16;19.63;;;2.00;;
70455;SDS011;57916;51.996;5.180;2023-12-22T05:49:43;16.57;;;2.67;;
70455;SDS011;57916;51.996;5.180;2023-12-22T05:52:11;17.00;;;2.20;;
70455;SDS011;57916;51.996;5.180;2023-12-22T05:54:41;13.98;;;2.30;;
70455;SDS011;57916;51.996;5.180;2023-12-22T05:57:08;20.23;;;2.75;;
70455;SDS011;57916;51.996;5.180;2023-12-22T05:59:35;17.60;;;2.13;;
70455;SDS011;57916;51.996;5.180;2023-12-22T06:02:02;14.48;;;2.25;;
70455;SDS011;57916;51.996;5.180;2023-12-22T06:04:29;18.40;;;2.70;;
70455;SDS011;57916;51.996;5.180;2023-12-22T06:06:57;12.85;;;2.33;;
70455;SDS011;57916;51.996;5.180;2023-12-22T06:09:23;16.02;;;2.10;;
70455;SDS011;57916;51.996;5.180;2023-12-22T06:11:50;15.27;;;2.38;;
70455;SDS011;57916;51.996;5.180;2023-12-22T06:14:17;12.93;;;2.57;;
70455;SDS011;57916;51.996;5.180;2023-12-22T06:16:44;22.23;;;2.80;;
70455;SDS011;57916;51.996;5.180;2023-12-22T06:19:12;21.40;;;3.03;;
70455;SDS011;57916;51.996;5.180;2023-12-22T06:21:42;20.08;;;2.63;;
70455;SDS011;57916;51.996;5.180;2023-12-22T06:24:09;19.70;;;2.97;;
70455;SDS011;57916;51.996;5.180;2023-12-22T06:26:36;19.87;;;2.87;;
70455;SDS011;57916;51.996;5.180;2023-12-22T06:29:03;19.30;;;2.72;;
70455;SDS011;57916;51.996;5.180;2023-12-22T06:31:30;22.55;;;3.05;;
70455;SDS011;57916;51.996;5.180;2023-12-22T06:33:57;20.95;;;2.95;;
70455;SDS011;57916;51.996;5.180;2023-12-22T06:36:29;24.95;;;3.30;;
70455;SDS011;57916;51.996;5.180;2023-12-22T06:38:56;23.35;;;3.17;;
70455;SDS011;57916;51.996;5.180;2023-12-22T06:41:24;28.70;;;3.43;;
70455;SDS011;57916;51.996;5.180;2023-12-22T06:43:54;31.70;;;3.83;;
70455;SDS011;57916;51.996;5.180;2023-12-22T06:46:27;33.00;;;3.88;;
70455;SDS011;57916;51.996;5.180;2023-12-22T06:48:55;25.80;;;3.53;;
70455;SDS011;57916;51.996;5.180;2023-12-22T06:51:24;27.30;;;3.83;;
70455;SDS011;57916;51.996;5.180;2023-12-22T06:53:53;24.50;;;3.93;;
70455;SDS011;57916;51.996;5.180;2023-12-22T06:56:22;29.98;;;3.72;;
70455;SDS011;57916;51.996;5.180;2023-12-22T06:58:53;29.70;;;3.78;;
70455;SDS011;57916;51.996;5.180;2023-12-22T07:01:22;30.92;;;4.50;;
70455;SDS011;57916;51.996;5.180;2023-12-22T07:03:56;24.75;;;3.70;;
70455;SDS011;57916;51.996;5.180;2023-12-22T07:06:23;28.70;;;3.80;;
70455;SDS011;57916;51.996;5.180;2023-12-22T07:08:56;25.45;;;4.53;;
70455;SDS011;57916;51.996;5.180;2023-12-22T07:11:27;30.85;;;4.35;;
70455;SDS011;57916;51.996;5.180;2023-12-22T07:14:03;33.65;;;4.88;;
70455;SDS011;57916;51.996;5.180;2023-12-22T07:16:30;29.83;;;4.18;;
70455;SDS011;57916;51.996;5.180;2023-12-22T07:18:59;34.03;;;4.25;;
70455;SDS011;57916;51.996;5.180;2023-12-22T07:21:27;30.40;;;3.70;;
70455;SDS011;57916;51.996;5.180;2023-12-22T07:23:54;32.55;;;4.28;;
70455;SDS011;57916;51.996;5.180;2023-12-22T07:26:20;42.20;;;4.60;;
70455;SDS011;57916;51.996;5.180;2023-12-22T07:28:50;32.90;;;4.50;;
70455;SDS011;57916;51.996;5.180;2023-12-22T07:31:19;30.73;;;4.65;;
70455;SDS011;57916;51.996;5.180;2023-12-22T07:33:46;35.20;;;4.32;;
70455;SDS011;57916;51.996;5.180;2023-12-22T07:36:14;37.58;;;5.22;;
70455;SDS011;57916;51.996;5.180;2023-12-22T07:38:41;36.78;;;4.63;;
70455;SDS011;57916;51.996;5.180;2023-12-22T07:41:08;33.58;;;4.55;;
70455;SDS011;57916;51.996;5.180;2023-12-22T07:43:37;36.57;;;4.50;;
70455;SDS011;57916;51.996;5.180;2023-12-22T07:46:05;35.33;;;4.50;;
70455;SDS011;57916;51.996;5.180;2023-12-22T07:48:32;35.95;;;4.38;;
70455;SDS011;57916;51.996;5.180;2023-12-22T07:50:59;31.88;;;4.70;;
70455;SDS011;57916;51.996;5.180;2023-12-22T07:53:26;31.95;;;4.72;;
70455;SDS011;57916;51.996;5.180;2023-12-22T07:55:53;33.63;;;4.40;;
70455;SDS011;57916;51.996;5.180;2023-12-22T07:58:21;32.33;;;4.10;;
70455;SDS011;57916;51.996;5.180;2023-12-22T08:00:48;30.38;;;4.13;;
70455;SDS011;57916;51.996;5.180;2023-12-22T08:03:15;20.90;;;3.70;;
70455;SDS011;57916;51.996;5.180;2023-12-22T08:05:42;29.40;;;3.92;;
70455;SDS011;57916;51.996;5.180;2023-12-22T08:08:09;30.20;;;4.20;;
70455;SDS011;57916;51.996;5.180;2023-12-22T08:10:36;31.48;;;4.00;;
70455;SDS011;57916;51.996;5.180;2023-12-22T08:13:03;31.20;;;3.95;;
70455;SDS011;57916;51.996;5.180;2023-12-22T08:15:30;33.08;;;3.63;;
70455;SDS011;57916;51.996;5.180;2023-12-22T08:18:02;23.73;;;3.45;;
70455;SDS011;57916;51.996;5.180;2023-12-22T08:20:30;23.95;;;3.55;;
70455;SDS011;57916;51.996;5.180;2023-12-22T08:23:03;28.00;;;3.28;;
70455;SDS011;57916;51.996;5.180;2023-12-22T08:25:36;31.27;;;3.75;;
70455;SDS011;57916;51.996;5.180;2023-12-22T08:28:05;26.83;;;3.33;;
70455;SDS011;57916;51.996;5.180;2023-12-22T08:30:33;28.90;;;3.78;;
70455;SDS011;57916;51.996;5.180;2023-12-22T08:33:00;28.38;;;3.40;;
70455;SDS011;57916;51.996;5.180;2023-12-22T08:35:28;27.13;;;3.15;;
70455;SDS011;57916;51.996;5.180;2023-12-22T08:37:55;24.67;;;2.92;;
70455;SDS011;57916;51.996;5.180;2023-12-22T08:40:22;27.80;;;3.13;;
70455;SDS011;57916;51.996;5.180;2023-12-22T08:42:53;24.55;;;3.05;;
70455;SDS011;57916;51.996;5.180;2023-12-22T08:45:21;22.73;;;3.05;;
70455;SDS011;57916;51.996;5.180;2023-12-22T08:47:48;23.73;;;3.25;;
70455;SDS011;57916;51.996;5.180;2023-12-22T08:50:15;18.38;;;3.00;;
70455;SDS011;57916;51.996;5.180;2023-12-22T08:52:43;18.73;;;2.42;;
70455;SDS011;57916;51.996;5.180;2023-12-22T08:55:10;19.23;;;2.90;;
70455;SDS011;57916;51.996;5.180;2023-12-22T08:57:37;16.83;;;2.50;;
70455;SDS011;57916;51.996;5.180;2023-12-22T09:00:12;15.07;;;2.53;;
70455;SDS011;57916;51.996;5.180;2023-12-22T09:02:40;22.73;;;3.15;;
70455;SDS011;57916;51.996;5.180;2023-12-22T09:05:07;16.25;;;2.45;;
70455;SDS011;57916;51.996;5.180;2023-12-22T09:07:34;19.27;;;2.42;;
70455;SDS011;57916;51.996;5.180;2023-12-22T09:10:02;17.00;;;2.55;;
70455;SDS011;57916;51.996;5.180;2023-12-22T09:12:33;18.23;;;2.42;;
70455;SDS011;57916;51.996;5.180;2023-12-22T09:15:00;20.73;;;2.63;;
70455;SDS011;57916;51.996;5.180;2023-12-22T09:17:27;18.33;;;2.55;;
70455;SDS011;57916;51.996;5.180;2023-12-22T09:19:55;14.68;;;2.10;;
70455;SDS011;57916;51.996;5.180;2023-12-22T09:22:22;14.90;;;2.25;;
70455;SDS011;57916;51.996;5.180;2023-12-22T09:24:49;13.52;;;2.30;;
70455;SDS011;57916;51.996;5.180;2023-12-22T09:27:16;8.88;;;1.70;;
70455;SDS011;57916;51.996;5.180;2023-12-22T09:29:43;11.60;;;1.90;;
70455;SDS011;57916;51.996;5.180;2023-12-22T09:32:10;13.02;;;1.58;;
70455;SDS011;57916;51.996;5.180;2023-12-22T09:34:37;9.27;;;1.45;;
70455;SDS011;57916;51.996;5.180;2023-12-22T09:37:06;10.05;;;1.50;;
70455;SDS011;57916;51.996;5.180;2023-12-22T09:39:33;10.05;;;1.60;;
70455;SDS011;57916;51.996;5.180;2023-12-22T09:42:00;10.50;;;1.40;;
70455;SDS011;57916;51.996;5.180;2023-12-22T09:44:27;13.45;;;1.20;;
70455;SDS011;57916;51.996;5.180;2023-12-22T09:46:58;12.02;;;1.40;;
70455;SDS011;57916;51.996;5.180;2023-12-22T09:49:26;7.70;;;1.48;;
70455;SDS011;57916;51.996;5.180;2023-12-22T09:51:53;9.10;;;1.60;;
70455;SDS011;57916;51.996;5.180;2023-12-22T09:54:21;6.78;;;1.40;;
70455;SDS011;57916;51.996;5.180;2023-12-22T09:56:48;9.38;;;1.75;;
70455;SDS011;57916;51.996;5.180;2023-12-22T09:59:17;6.80;;;1.38;;
70455;SDS011;57916;51.996;5.180;2023-12-22T10:01:45;5.95;;;1.08;;
70455;SDS011;57916;51.996;5.180;2023-12-22T10:04:15;5.13;;;1.20;;
70455;SDS011;57916;51.996;5.180;2023-12-22T10:06:43;5.38;;;1.08;;
70455;SDS011;57916;51.996;5.180;2023-12-22T10:09:13;6.70;;;1.00;;
70455;SDS011;57916;51.996;5.180;2023-12-22T10:11:43;5.45;;;1.27;;
70455;SDS011;57916;51.996;5.180;2023-12-22T10:14:10;9.15;;;1.33;;
70455;SDS011;57916;51.996;5.180;2023-12-22T10:16:40;9.88;;;1.55;;
70455;SDS011;57916;51.996;5.180;2023-12-22T10:19:07;7.65;;;1.10;;
70455;SDS011;57916;51.996;5.180;2023-12-22T10:21:35;5.43;;;1.20;;
70455;SDS011;57916;51.996;5.180;2023-12-22T10:24:02;10.25;;;1.42;;
70455;SDS011;57916;51.996;5.180;2023-12-22T10:26:29;8.98;;;1.10;;
70455;SDS011;57916;51.996;5.180;2023-12-22T10:28:56;5.65;;;1.15;;
70455;SDS011;57916;51.996;5.180;2023-12-22T10:31:23;6.60;;;1.30;;
70455;SDS011;57916;51.996;5.180;2023-12-22T10:33:53;8.32;;;1.13;;
70455;SDS011;57916;51.996;5.180;2023-12-22T10:36:20;10.20;;;1.55;;
70455;SDS011;57916;51.996;5.180;2023-12-22T10:38:47;9.48;;;1.50;;
70455;SDS011;57916;51.996;5.180;2023-12-22T10:41:14;5.75;;;1.30;;
70455;SDS011;57916;51.996;5.180;2023-12-22T10:43:42;9.50;;;1.50;;
70455;SDS011;57916;51.996;5.180;2023-12-22T10:46:10;7.57;;;1.67;;
70455;SDS011;57916;51.996;5.180;2023-12-22T10:48:40;12.65;;;1.50;;
70455;SDS011;57916;51.996;5.180;2023-12-22T10:51:10;6.45;;;1.30;;
70455;SDS011;57916;51.996;5.180;2023-12-22T10:53:40;6.35;;;1.10;;
70455;SDS011;57916;51.996;5.180;2023-12-22T10:56:08;9.05;;;1.50;;
70455;SDS011;57916;51.996;5.180;2023-12-22T10:58:36;8.07;;;1.40;;
70455;SDS011;57916;51.996;5.180;2023-12-22T11:01:06;7.60;;;1.10;;
70455;SDS011;57916;51.996;5.180;2023-12-22T11:03:34;6.13;;;1.23;;
70455;SDS011;57916;51.996;5.180;2023-12-22T11:06:05;5.75;;;1.20;;
70455;SDS011;57916;51.996;5.180;2023-12-22T11:08:37;10.50;;;1.55;;
70455;SDS011;57916;51.996;5.180;2023-12-22T11:11:08;10.38;;;1.30;;
70455;SDS011;57916;51.996;5.180;2023-12-22T11:13:42;6.05;;;1.10;;
70455;SDS011;57916;51.996;5.180;2023-12-22T11:16:10;7.32;;;1.25;;
70455;SDS011;57916;51.996;5.180;2023-12-22T11:18:38;5.93;;;1.20;;
70455;SDS011;57916;51.996;5.180;2023-12-22T11:21:05;5.47;;;1.20;;
70455;SDS011;57916;51.996;5.180;2023-12-22T11:23:34;8.60;;;1.40;;
70455;SDS011;57916;51.996;5.180;2023-12-22T11:26:03;7.45;;;1.52;;
70455;SDS011;57916;51.996;5.180;2023-12-22T11:28:32;8.65;;;1.30;;
70455;SDS011;57916;51.996;5.180;2023-12-22T11:30:59;6.20;;;1.17;;
70455;SDS011;57916;51.996;5.180;2023-12-22T11:33:28;8.15;;;1.02;;
70455;SDS011;57916;51.996;5.180;2023-12-22T11:35:56;8.27;;;1.10;;
70455;SDS011;57916;51.996;5.180;2023-12-22T11:38:24;8.13;;;1.52;;
70455;SDS011;57916;51.996;5.180;2023-12-22T11:40:51;9.18;;;1.27;;
70455;SDS011;57916;51.996;5.180;2023-12-22T11:43:19;9.65;;;1.50;;
70455;SDS011;57916;51.996;5.180;2023-12-22T11:45:50;10.25;;;1.45;;
70455;SDS011;57916;51.996;5.180;2023-12-22T11:48:17;12.13;;;1.47;;
70455;SDS011;57916;51.996;5.180;2023-12-22T11:50:45;7.88;;;1.30;;
70455;SDS011;57916;51.996;5.180;2023-12-22T11:53:22;7.90;;;1.30;;
70455;SDS011;57916;51.996;5.180;2023-12-22T11:58:45;9.98;;;1.38;;
70455;SDS011;57916;51.996;5.180;2023-12-22T12:01:24;10.00;;;1.57;;
70455;SDS011;57916;51.996;5.180;2023-12-22T12:03:52;6.95;;;1.33;;
70455;SDS011;57916;51.996;5.180;2023-12-22T12:08:57;10.13;;;1.80;;
70455;SDS011;57916;51.996;5.180;2023-12-22T12:14:31;9.85;;;1.50;;
70455;SDS011;57916;51.996;5.180;2023-12-22T12:17:07;9.88;;;1.35;;
70455;SDS011;57916;51.996;5.180;2023-12-22T12:19:35;10.87;;;1.30;;
70455;SDS011;57916;51.996;5.180;2023-12-22T12:22:04;7.40;;;1.30;;
70455;SDS011;57916;51.996;5.180;2023-12-22T12:24:31;7.72;;;1.50;;
70455;SDS011;57916;51.996;5.180;2023-12-22T12:26:58;11.73;;;2.30;;
70455;SDS011;57916;51.996;5.180;2023-12-22T12:29:25;9.90;;;1.33;;
70455;SDS011;57916;51.996;5.180;2023-12-22T12:31:52;12.63;;;1.83;;
70455;SDS011;57916;51.996;5.180;2023-12-22T12:34:19;6.72;;;1.25;;
70455;SDS011;57916;51.996;5.180;2023-12-22T12:36:49;7.43;;;1.33;;
70455;SDS011;57916;51.996;5.180;2023-12-22T12:39:16;9.88;;;1.42;;
70455;SDS011;57916;51.996;5.180;2023-12-22T12:41:47;7.28;;;1.30;;
70455;SDS011;57916;51.996;5.180;2023-12-22T12:44:20;7.68;;;1.55;;
70455;SDS011;57916;51.996;5.180;2023-12-22T12:46:50;8.77;;;1.58;;
70455;SDS011;57916;51.996;5.180;2023-12-22T12:49:18;13.88;;;1.80;;
70455;SDS011;57916;51.996;5.180;2023-12-22T12:51:46;9.02;;;1.40;;
70455;SDS011;57916;51.996;5.180;2023-12-22T12:54:15;8.63;;;1.55;;
70455;SDS011;57916;51.996;5.180;2023-12-22T12:59:13;9.40;;;1.30;;
70455;SDS011;57916;51.996;5.180;2023-12-22T13:01:42;8.00;;;1.70;;
70455;SDS011;57916;51.996;5.180;2023-12-22T13:04:14;7.57;;;1.30;;
70455;SDS011;57916;51.996;5.180;2023-12-22T13:09:14;7.63;;;1.30;;
70455;SDS011;57916;51.996;5.180;2023-12-22T13:11:42;8.53;;;1.30;;
70455;SDS011;57916;51.996;5.180;2023-12-22T13:14:21;7.60;;;1.40;;
70455;SDS011;57916;51.996;5.180;2023-12-22T13:16:52;11.30;;;1.40;;
70455;SDS011;57916;51.996;5.180;2023-12-22T13:19:24;11.45;;;1.60;;
70455;SDS011;57916;51.996;5.180;2023-12-22T13:21:55;7.25;;;1.17;;
70455;SDS011;57916;51.996;5.180;2023-12-22T13:24:22;10.95;;;1.60;;
70455;SDS011;57916;51.996;5.180;2023-12-22T13:26:59;14.32;;;1.88;;
70455;SDS011;57916;51.996;5.180;2023-12-22T13:29:41;8.35;;;1.60;;
70455;SDS011;57916;51.996;5.180;2023-12-22T13:32:14;10.20;;;1.50;;
70455;SDS011;57916;51.996;5.180;2023-12-22T13:34:46;10.43;;;1.80;;
70455;SDS011;57916;51.996;5.180;2023-12-22T13:37:15;9.02;;;1.77;;
70455;SDS011;57916;51.996;5.180;2023-12-22T13:39:43;7.50;;;1.38;;
70455;SDS011;57916;51.996;5.180;2023-12-22T13:42:17;10.10;;;1.45;;
70455;SDS011;57916;51.996;5.180;2023-12-22T13:44:47;7.47;;;1.40;;
70455;SDS011;57916;51.996;5.180;2023-12-22T13:47:15;12.73;;;1.88;;
70455;SDS011;57916;51.996;5.180;2023-12-22T13:49:43;9.13;;;1.60;;
70455;SDS011;57916;51.996;5.180;2023-12-22T13:52:26;11.88;;;1.75;;
70455;SDS011;57916;51.996;5.180;2023-12-22T13:55:01;12.68;;;1.77;;
70455;SDS011;57916;51.996;5.180;2023-12-22T13:57:29;9.43;;;1.48;;
70455;SDS011;57916;51.996;5.180;2023-12-22T13:59:56;10.07;;;1.80;;
70455;SDS011;57916;51.996;5.180;2023-12-22T14:02:23;14.10;;;1.70;;
70455;SDS011;57916;51.996;5.180;2023-12-22T14:04:51;14.75;;;2.00;;
70455;SDS011;57916;51.996;5.180;2023-12-22T14:07:19;10.40;;;1.75;;
70455;SDS011;57916;51.996;5.180;2023-12-22T14:09:48;9.18;;;1.55;;
70455;SDS011;57916;51.996;5.180;2023-12-22T14:12:15;11.38;;;1.75;;
70455;SDS011;57916;51.996;5.180;2023-12-22T14:14:53;10.02;;;1.75;;
70455;SDS011;57916;51.996;5.180;2023-12-22T14:17:20;11.93;;;1.80;;
70455;SDS011;57916;51.996;5.180;2023-12-22T14:19:47;7.57;;;1.40;;
70455;SDS011;57916;51.996;5.180;2023-12-22T14:22:15;13.23;;;1.73;;
70455;SDS011;57916;51.996;5.180;2023-12-22T14:24:43;12.13;;;1.83;;
70455;SDS011;57916;51.996;5.180;2023-12-22T14:27:10;9.73;;;1.50;;
70455;SDS011;57916;51.996;5.180;2023-12-22T14:29:37;11.63;;;1.90;;
70455;SDS011;57916;51.996;5.180;2023-12-22T14:32:07;9.82;;;1.65;;
70455;SDS011;57916;51.996;5.180;2023-12-22T14:34:38;10.80;;;1.65;;
70455;SDS011;57916;51.996;5.180;2023-12-22T14:37:05;10.23;;;2.00;;
70455;SDS011;57916;51.996;5.180;2023-12-22T14:39:32;11.77;;;1.92;;
70455;SDS011;57916;51.996;5.180;2023-12-22T14:42:00;18.38;;;2.05;;
70455;SDS011;57916;51.996;5.180;2023-12-22T14:44:29;15.15;;;1.90;;
70455;SDS011;57916;51.996;5.180;2023-12-22T14:46:56;16.10;;;2.13;;
70455;SDS011;57916;51.996;5.180;2023-12-22T14:49:23;14.55;;;2.10;;
70455;SDS011;57916;51.996;5.180;2023-12-22T14:51:50;14.07;;;2.20;;
70455;SDS011;57916;51.996;5.180;2023-12-22T14:54:22;10.85;;;1.80;;
70455;SDS011;57916;51.996;5.180;2023-12-22T14:56:49;20.73;;;2.67;;
70455;SDS011;57916;51.996;5.180;2023-12-22T14:59:17;18.13;;;2.33;;